createdAt,value
2018-09-19T00:02:31.181Z,64.30
2018-09-19T00:05:07.787Z,66.60
2018-09-19T00:07:49.446Z,66.70
2018-09-19T00:10:22.911Z,66.20
2018-09-19T00:12:56.290Z,66.00
2018-09-19T00:15:29.679Z,66.10
2018-09-19T00:18:03.071Z,67.40
2018-09-19T00:20:36.460Z,68.30
2018-09-19T00:23:10.298Z,68.10
2018-09-19T00:25:43.819Z,67.60
2018-09-19T00:28:17.184Z,67.60
2018-09-19T00:30:50.591Z,67.60
2018-09-19T00:33:29.711Z,67.50
2018-09-19T00:36:03.544Z,67.30
2018-09-19T00:38:37.082Z,66.20
2018-09-19T00:41:10.467Z,67.00
2018-09-19T00:43:43.821Z,67.60
2018-09-19T00:46:17.191Z,67.50
2018-09-19T00:48:50.606Z,67.20
2018-09-19T00:51:25.098Z,67.00
2018-09-19T00:53:58.461Z,66.50
2018-09-19T00:56:31.858Z,67.40
2018-09-19T00:59:05.249Z,67.40
2018-09-19T01:01:38.627Z,67.70
2018-09-19T01:04:13.014Z,67.40
2018-09-19T01:06:46.384Z,66.80
2018-09-19T01:09:19.740Z,67.10
2018-09-19T01:11:53.106Z,66.70
2018-09-19T01:14:26.459Z,65.70
2018-09-19T01:16:59.834Z,67.70
2018-09-19T01:19:33.199Z,67.70
2018-09-19T01:22:06.670Z,68.00
2018-09-19T01:24:40.019Z,68.10
2018-09-19T01:27:13.391Z,68.10
2018-09-19T01:29:46.842Z,67.60
2018-09-19T01:32:20.208Z,66.60
2018-09-19T01:34:53.555Z,67.00
2018-09-19T01:37:27.090Z,67.70
2018-09-19T01:40:00.459Z,68.20
2018-09-19T01:42:33.842Z,69.00
2018-09-19T01:45:07.208Z,68.90
2018-09-19T01:47:40.580Z,69.50
2018-09-19T01:50:13.935Z,69.70
2018-09-19T01:52:47.299Z,69.00
2018-09-19T01:55:20.661Z,67.10
2018-09-19T01:57:54.026Z,68.60
2018-09-19T02:00:27.380Z,68.80
2018-09-19T02:03:00.762Z,70.90
2018-09-19T02:05:34.128Z,70.70
2018-09-19T02:08:07.556Z,70.50
2018-09-19T02:10:40.923Z,71.00
2018-09-19T02:13:14.298Z,72.00
2018-09-19T02:15:47.661Z,71.00
2018-09-19T02:18:21.032Z,70.40
2018-09-19T02:20:55.430Z,70.60
2018-09-19T02:23:28.794Z,71.30
2018-09-19T02:26:02.150Z,71.10
2018-09-19T02:28:35.604Z,71.40
2018-09-19T02:31:08.936Z,71.10
2018-09-19T02:33:42.332Z,71.30
2018-09-19T02:36:21.990Z,71.70
2018-09-19T02:38:57.394Z,71.50
2018-09-19T02:41:30.755Z,71.70
2018-09-19T02:44:04.138Z,71.80
2018-09-19T02:46:37.511Z,71.50
2018-09-19T02:49:10.898Z,71.70
2018-09-19T02:51:44.248Z,72.10
2018-09-19T02:54:17.703Z,71.40
2018-09-19T02:56:51.060Z,71.20
2018-09-19T02:59:24.426Z,72.00
2018-09-19T03:01:57.773Z,72.10
2018-09-19T03:04:31.242Z,73.20
2018-09-19T03:07:04.593Z,73.40
2018-09-19T03:09:37.966Z,73.20
2018-09-19T03:12:11.728Z,73.90
2018-09-19T03:14:45.097Z,74.20
2018-09-19T03:17:18.555Z,74.20
2018-09-19T03:19:51.861Z,73.90
2018-09-19T03:22:25.218Z,74.00
2018-09-19T03:24:58.629Z,75.40
2018-09-19T03:27:32.051Z,75.50
2018-09-19T03:30:05.783Z,75.10
2018-09-19T03:32:39.156Z,74.10
2018-09-19T03:35:12.570Z,74.70
2018-09-19T03:37:45.918Z,75.30
2018-09-19T03:40:19.327Z,75.70
2018-09-19T03:42:52.776Z,75.90
2018-09-19T03:45:26.203Z,75.80
2018-09-19T03:47:59.603Z,74.10
2018-09-19T03:50:33.016Z,73.70
2018-09-19T03:53:06.465Z,72.80
2018-09-19T03:55:39.947Z,74.10
2018-09-19T03:58:13.370Z,75.10
2018-09-19T04:00:46.786Z,75.10
2018-09-19T04:03:20.214Z,75.10
2018-09-19T04:05:53.675Z,76.20
2018-09-19T04:08:27.094Z,75.70
2018-09-19T04:11:00.542Z,75.10
2018-09-19T04:13:33.972Z,75.50
2018-09-19T04:16:07.409Z,75.40
2018-09-19T04:18:40.824Z,75.50
2018-09-19T04:21:14.276Z,75.30
2018-09-19T04:23:47.677Z,75.20
2018-09-19T04:26:21.095Z,75.10
2018-09-19T04:28:54.506Z,78.70
2018-09-19T04:31:27.940Z,75.90
2018-09-19T04:34:01.354Z,74.00
2018-09-19T04:36:34.781Z,74.40
2018-09-19T04:39:09.772Z,73.40
2018-09-19T04:41:43.195Z,74.30
2018-09-19T04:44:16.602Z,74.60
2018-09-19T04:46:50.067Z,75.00
2018-09-19T04:49:23.488Z,76.20
2018-09-19T04:51:56.913Z,75.70
2018-09-19T04:54:30.342Z,75.30
2018-09-19T04:57:03.778Z,74.90
2018-09-19T04:59:37.187Z,74.60
2018-09-19T05:02:10.590Z,74.90
2018-09-19T05:04:43.988Z,74.70
2018-09-19T05:07:17.444Z,75.30
2018-09-19T05:09:50.832Z,75.20
2018-09-19T05:12:24.279Z,75.30
2018-09-19T05:14:57.685Z,75.50
2018-09-19T05:17:31.104Z,75.20
2018-09-19T05:20:04.568Z,75.00
2018-09-19T05:22:37.990Z,75.80
2018-09-19T05:25:11.391Z,75.70
2018-09-19T05:27:44.806Z,76.00
2018-09-19T05:30:18.213Z,78.00
2018-09-19T05:32:51.628Z,75.40
2018-09-19T05:35:25.039Z,74.90
2018-09-19T05:37:58.454Z,75.70
2018-09-19T05:40:31.874Z,75.00
2018-09-19T05:43:05.299Z,76.40
2018-09-19T05:45:38.783Z,77.20
2018-09-19T05:48:12.243Z,78.30
2018-09-19T05:50:45.640Z,77.60
2018-09-19T05:53:19.058Z,78.10
2018-09-19T05:55:52.496Z,78.50
2018-09-19T05:58:26.107Z,78.80
2018-09-19T06:00:59.569Z,78.70
2018-09-19T06:03:32.996Z,77.60
2018-09-19T06:06:06.451Z,79.70
2018-09-19T06:08:39.863Z,79.30
2018-09-19T06:11:13.259Z,80.00
2018-09-19T06:13:46.703Z,78.80
2018-09-19T06:16:20.112Z,79.60
2018-09-19T06:18:53.528Z,79.70
2018-09-19T06:21:26.960Z,79.40
2018-09-19T06:24:00.399Z,80.00
2018-09-19T06:26:33.847Z,79.70
2018-09-19T06:29:07.440Z,80.00
2018-09-19T06:31:40.847Z,79.90
2018-09-19T06:34:14.291Z,79.60
2018-09-19T06:36:47.692Z,80.20
2018-09-19T06:39:21.164Z,81.00
2018-09-19T06:43:03.344Z,80.00
2018-09-19T06:45:36.801Z,80.40
2018-09-19T06:48:11.279Z,81.10
2018-09-19T06:50:44.689Z,80.90
2018-09-19T06:53:18.113Z,79.30
2018-09-19T06:55:52.609Z,79.50
2018-09-19T06:58:26.040Z,77.30
2018-09-19T07:00:59.450Z,79.90
2018-09-19T07:03:32.862Z,81.20
2018-09-19T07:06:06.461Z,83.30
2018-09-19T07:08:39.888Z,82.20
2018-09-19T07:11:13.417Z,83.20
2018-09-19T07:13:46.880Z,80.70
2018-09-19T07:16:20.398Z,80.20
2018-09-19T07:18:53.847Z,79.10
2018-09-19T07:21:27.226Z,80.40
2018-09-19T07:24:00.655Z,81.90
2018-09-19T07:26:34.051Z,81.60
2018-09-19T07:29:07.496Z,77.40
2018-09-19T07:31:40.963Z,78.00
2018-09-19T07:34:14.379Z,79.60
2018-09-19T07:36:47.799Z,78.60
2018-09-19T07:39:21.241Z,80.20
2018-09-19T07:41:54.746Z,78.40
2018-09-19T07:44:28.164Z,76.50
2018-09-19T07:47:01.559Z,75.30
2018-09-19T07:49:34.986Z,75.00
2018-09-19T07:52:08.453Z,74.10
2018-09-19T07:54:41.887Z,75.40
2018-09-19T07:57:15.295Z,76.10
2018-09-19T07:59:48.719Z,75.40
2018-09-19T08:02:22.225Z,77.20
2018-09-19T08:04:55.938Z,77.40
2018-09-19T08:07:29.335Z,76.60
2018-09-19T08:10:02.764Z,77.00
2018-09-19T08:12:36.175Z,78.50
2018-09-19T08:15:09.606Z,77.40
2018-09-19T08:17:43.032Z,75.70
2018-09-19T08:20:16.467Z,75.70
2018-09-19T08:22:49.950Z,73.80
2018-09-19T08:25:23.451Z,73.40
2018-09-19T08:27:56.862Z,72.50
2018-09-19T08:30:30.295Z,72.80
2018-09-19T08:33:03.708Z,76.50
2018-09-19T08:35:37.172Z,75.80
2018-09-19T08:38:10.664Z,74.80
2018-09-19T08:40:44.219Z,72.00
2018-09-19T08:43:17.699Z,70.90
2018-09-19T08:45:51.107Z,70.40
2018-09-19T08:48:24.513Z,70.60
2018-09-19T08:50:58.015Z,71.10
2018-09-19T08:53:31.416Z,71.00
2018-09-19T08:56:04.928Z,71.50
2018-09-19T08:58:38.337Z,72.40
2018-09-19T09:01:11.798Z,71.40
2018-09-19T09:03:45.516Z,71.10
2018-09-19T09:06:18.955Z,71.70
2018-09-19T09:08:52.357Z,71.10
2018-09-19T09:11:26.838Z,70.20
2018-09-19T09:14:00.235Z,70.60
2018-09-19T09:16:33.654Z,70.60
2018-09-19T09:19:07.071Z,71.10
2018-09-19T09:21:40.506Z,71.40
2018-09-19T09:24:13.903Z,71.30
2018-09-19T09:26:47.497Z,71.40
2018-09-19T09:29:20.876Z,70.10
2018-09-19T09:31:54.311Z,69.20
2018-09-19T09:34:27.711Z,67.80
2018-09-19T09:37:01.142Z,68.40
2018-09-19T09:39:34.559Z,69.40
2018-09-19T09:42:07.993Z,68.10
2018-09-19T09:44:41.406Z,68.00
2018-09-19T09:47:14.838Z,68.30
2018-09-19T09:49:48.253Z,69.60
2018-09-19T09:52:21.695Z,69.70
2018-09-19T09:54:55.087Z,68.40
2018-09-19T09:57:28.499Z,68.10
2018-09-19T10:00:01.974Z,66.80
2018-09-19T10:02:35.446Z,68.10
2018-09-19T10:05:08.861Z,66.80
2018-09-19T10:07:42.282Z,67.90
2018-09-19T10:10:15.756Z,66.10
2018-09-19T10:12:49.187Z,65.50
2018-09-19T10:15:22.593Z,70.00
2018-09-19T10:17:56.006Z,66.10
2018-09-19T10:20:29.405Z,66.70
2018-09-19T10:23:02.867Z,67.30
2018-09-19T10:25:36.561Z,65.50
2018-09-19T10:28:10.059Z,66.10
2018-09-19T10:30:43.451Z,65.80
2018-09-19T10:33:16.961Z,63.80
2018-09-19T10:35:50.478Z,63.30
2018-09-19T10:38:23.896Z,63.30
2018-09-19T10:40:57.323Z,63.10
2018-09-19T10:43:30.839Z,62.50
2018-09-19T10:46:04.259Z,62.00
2018-09-19T10:48:37.706Z,62.10
2018-09-19T10:51:11.139Z,62.30
2018-09-19T10:53:44.571Z,61.60
2018-09-19T10:56:17.978Z,62.50
2018-09-19T10:58:51.408Z,61.60
2018-09-19T11:01:24.823Z,60.60
2018-09-19T11:03:58.251Z,60.60
2018-09-19T11:06:31.678Z,61.30
2018-09-19T11:09:07.539Z,61.10
2018-09-19T11:11:40.955Z,60.40
2018-09-19T11:14:14.446Z,60.20
2018-09-19T11:16:47.891Z,60.10
2018-09-19T11:19:21.335Z,59.80
2018-09-19T11:21:54.722Z,59.70
2018-09-19T11:24:28.174Z,60.20
2018-09-19T11:27:01.566Z,58.20
2018-09-19T11:29:34.975Z,60.10
2018-09-19T11:32:08.394Z,58.80
2018-09-19T11:34:41.869Z,57.90
2018-09-19T11:37:15.265Z,58.20
2018-09-19T11:39:48.705Z,58.70
2018-09-19T11:42:23.150Z,57.90
2018-09-19T11:44:56.676Z,57.50
2018-09-19T11:47:30.067Z,58.60
2018-09-19T11:50:03.576Z,57.40
2018-09-19T11:52:36.987Z,58.30
2018-09-19T11:55:10.411Z,57.90
2018-09-19T11:57:43.835Z,58.10
2018-09-19T12:00:17.375Z,58.10
2018-09-19T12:02:50.836Z,58.30
2018-09-19T12:05:24.403Z,56.10
2018-09-19T12:07:59.683Z,57.30
2018-09-19T12:10:33.147Z,56.20
2018-09-19T12:13:06.651Z,55.80
2018-09-19T12:15:40.115Z,56.20
2018-09-19T12:18:13.519Z,57.70
2018-09-19T12:20:46.956Z,56.20
2018-09-19T12:23:20.362Z,57.50
2018-09-19T12:25:53.815Z,55.70
2018-09-19T12:28:27.259Z,57.20
2018-09-19T12:31:02.430Z,57.40
2018-09-19T12:33:35.826Z,55.80
2018-09-19T12:36:09.306Z,57.40
2018-09-19T12:38:42.751Z,56.10
2018-09-19T12:41:16.191Z,56.50
2018-09-19T12:43:51.890Z,56.80
2018-09-19T12:46:25.331Z,55.50
2018-09-19T12:48:58.758Z,55.80
2018-09-19T12:51:32.213Z,56.30
2018-09-19T12:54:05.628Z,55.80
2018-09-19T12:56:39.080Z,54.40
2018-09-19T12:59:12.523Z,56.30
2018-09-19T13:01:48.718Z,55.10
2018-09-19T13:04:22.314Z,55.60
2018-09-19T13:06:55.742Z,56.10
2018-09-19T13:09:29.172Z,54.80
2018-09-19T13:12:02.638Z,54.90
2018-09-19T13:14:37.107Z,54.50
2018-09-19T13:17:11.280Z,54.60
2018-09-19T13:19:44.718Z,55.10
2018-09-19T13:22:18.152Z,54.90
2018-09-19T13:24:51.561Z,54.50
2018-09-19T13:27:25.065Z,55.30
2018-09-19T13:29:58.511Z,52.00
2018-09-19T13:32:31.919Z,52.70
2018-09-19T13:35:05.344Z,52.70
2018-09-19T13:37:38.768Z,52.50
2018-09-19T13:40:12.336Z,52.00
2018-09-19T13:42:45.743Z,52.70
2018-09-19T13:45:19.179Z,53.60
2018-09-19T13:47:52.577Z,52.60
2018-09-19T13:51:28.591Z,52.20
2018-09-19T13:54:01.994Z,52.10
2018-09-19T13:56:35.419Z,52.30
2018-09-19T13:59:08.879Z,52.50
2018-09-19T14:01:42.295Z,52.30
2018-09-19T14:04:15.714Z,52.20
2018-09-19T14:06:49.143Z,52.60
2018-09-19T14:09:22.635Z,51.20
2018-09-19T14:11:56.071Z,53.20
2018-09-19T14:14:29.480Z,51.70
2018-09-19T14:17:02.938Z,51.70
2018-09-19T14:19:36.369Z,51.90
2018-09-19T14:22:09.885Z,50.20
2018-09-19T14:24:43.284Z,50.00
2018-09-19T14:27:16.724Z,50.40
2018-09-19T14:29:50.515Z,51.30
2018-09-19T14:32:24.055Z,50.80
2018-09-19T14:34:57.508Z,50.70
2018-09-19T14:37:30.918Z,51.50
2018-09-19T14:40:04.494Z,49.40
2018-09-19T14:42:37.936Z,51.00
2018-09-19T14:45:11.351Z,49.30
2018-09-19T14:47:44.799Z,48.50
2018-09-19T14:50:18.214Z,49.00
2018-09-19T14:52:57.652Z,49.30
2018-09-19T14:55:31.068Z,51.10
2018-09-19T14:58:04.601Z,51.70
2018-09-19T15:00:38.136Z,51.10
2018-09-19T15:03:11.564Z,50.10
2018-09-19T15:05:44.956Z,49.80
2018-09-19T15:08:18.459Z,49.30
2018-09-19T15:10:51.936Z,49.10
2018-09-19T15:13:25.463Z,49.70
2018-09-19T15:15:58.863Z,51.30
2018-09-19T15:18:32.287Z,49.80
2018-09-19T15:21:05.879Z,50.60
2018-09-19T15:23:39.303Z,49.70
2018-09-19T15:26:13.533Z,50.10
2018-09-19T15:28:46.952Z,51.10
2018-09-19T15:31:20.388Z,49.30
2018-09-19T15:33:53.802Z,50.00
2018-09-19T15:36:27.215Z,49.20
2018-09-19T15:39:00.660Z,50.20
2018-09-19T15:41:34.072Z,50.40
2018-09-19T15:44:07.502Z,51.70
2018-09-19T15:46:40.927Z,52.10
2018-09-19T15:49:14.319Z,52.20
2018-09-19T15:51:47.751Z,53.00
2018-09-19T15:54:21.147Z,52.60
2018-09-19T15:56:54.566Z,51.20
2018-09-19T15:59:27.975Z,50.40
2018-09-19T16:02:01.426Z,50.40
2018-09-19T16:04:34.904Z,50.60
2018-09-19T16:07:08.392Z,50.10
2018-09-19T16:09:41.807Z,50.00
2018-09-19T16:12:15.240Z,49.60
2018-09-19T16:14:49.723Z,50.80
2018-09-19T16:17:23.155Z,53.00
2018-09-19T16:19:56.559Z,52.80
2018-09-19T16:22:29.978Z,53.00
2018-09-19T16:25:03.451Z,53.30
2018-09-19T16:27:36.875Z,54.70
2018-09-19T16:30:10.301Z,55.40
2018-09-19T16:32:43.737Z,55.60
2018-09-19T16:35:17.155Z,54.80
2018-09-19T16:37:50.588Z,55.50
2018-09-19T16:40:24.012Z,54.20
2018-09-19T16:42:57.423Z,55.30
2018-09-19T16:45:30.915Z,55.90
2018-09-19T16:48:04.391Z,56.60
2018-09-19T16:50:37.792Z,57.50
2018-09-19T16:53:11.227Z,57.40
2018-09-19T16:55:44.636Z,58.00
2018-09-19T16:58:18.054Z,57.30
2018-09-19T17:00:51.487Z,57.30
2018-09-19T17:03:24.915Z,57.90
2018-09-19T17:05:58.323Z,58.30
2018-09-19T17:08:31.800Z,58.70
2018-09-19T17:11:05.323Z,58.50
2018-09-19T17:13:38.753Z,59.10
2018-09-19T17:16:12.180Z,59.50
2018-09-19T17:18:45.712Z,58.90
2018-09-19T17:21:19.108Z,59.60
2018-09-19T17:23:52.527Z,58.60
2018-09-19T17:26:25.947Z,58.10
2018-09-19T17:28:59.509Z,57.80
2018-09-19T17:31:32.932Z,58.00
2018-09-19T17:34:06.360Z,57.40
2018-09-19T17:36:43.652Z,57.30
2018-09-19T17:39:17.157Z,56.90
2018-09-19T17:41:50.575Z,57.00
2018-09-19T17:44:24.070Z,57.30
2018-09-19T17:46:57.562Z,57.50
2018-09-19T17:49:31.062Z,57.10
2018-09-19T17:52:04.507Z,57.00
2018-09-19T17:54:37.931Z,57.00
2018-09-19T17:57:11.461Z,56.60
2018-09-19T17:59:44.900Z,56.40
2018-09-19T18:02:18.370Z,56.50
2018-09-19T18:04:51.812Z,57.50
2018-09-19T18:07:25.310Z,56.40
2018-09-19T18:09:58.736Z,56.20
2018-09-19T18:12:32.170Z,56.20
2018-09-19T18:15:05.812Z,56.90
2018-09-19T18:17:39.339Z,59.30
2018-09-19T18:20:12.767Z,58.30
2018-09-19T18:22:46.214Z,57.20
2018-09-19T18:25:19.638Z,57.20
2018-09-19T18:27:53.032Z,57.10
2018-09-19T18:30:26.548Z,57.80
2018-09-19T18:32:59.958Z,58.10
2018-09-19T18:35:33.581Z,57.10
2018-09-19T18:38:07.206Z,57.50
2018-09-19T18:40:40.643Z,57.10
2018-09-19T18:43:14.130Z,57.30
2018-09-19T18:45:47.567Z,57.20
2018-09-19T18:48:21.011Z,57.00
2018-09-19T18:50:54.518Z,58.00
2018-09-19T18:53:28.750Z,58.00
2018-09-19T18:56:02.239Z,62.90
2018-09-19T18:58:35.660Z,62.50
2018-09-19T19:01:09.827Z,59.00
2018-09-19T19:03:43.292Z,58.90
2018-09-19T19:06:16.735Z,58.20
2018-09-19T19:08:50.219Z,58.50
2018-09-19T19:11:23.773Z,59.10
2018-09-19T19:13:57.190Z,57.90
2018-09-19T19:16:30.626Z,58.30
2018-09-19T19:19:04.072Z,58.30
2018-09-19T19:21:37.513Z,58.80
2018-09-19T19:24:10.922Z,59.20
2018-09-19T19:26:44.339Z,59.30
2018-09-19T19:29:17.736Z,59.70
2018-09-19T19:31:51.157Z,59.30
2018-09-19T19:34:24.564Z,59.20
2018-09-19T19:36:58.007Z,59.10
2018-09-19T19:39:31.415Z,59.50
2018-09-19T19:42:04.901Z,60.80
2018-09-19T19:44:38.342Z,61.40
2018-09-19T19:47:11.812Z,61.00
2018-09-19T19:49:45.211Z,60.90
2018-09-19T19:52:18.624Z,61.00
2018-09-19T19:54:52.032Z,61.20
2018-09-19T19:57:25.508Z,61.10
2018-09-19T19:59:58.906Z,61.80
2018-09-19T20:02:33.303Z,62.00
2018-09-19T20:05:06.747Z,61.80
2018-09-19T20:07:40.167Z,61.60
2018-09-19T20:10:13.643Z,61.80
2018-09-19T20:12:47.371Z,62.50
2018-09-19T20:15:20.791Z,61.80
2018-09-19T20:17:54.259Z,62.00
2018-09-19T20:20:27.683Z,63.10
2018-09-19T20:23:01.159Z,62.30
2018-09-19T20:25:34.610Z,62.20
2018-09-19T20:28:08.023Z,62.00
2018-09-19T20:30:41.443Z,62.00
2018-09-19T20:33:16.937Z,66.60
2018-09-19T20:35:50.339Z,63.00
2018-09-19T20:38:23.804Z,62.60
2018-09-19T20:40:57.287Z,62.50
2018-09-19T20:43:30.711Z,62.80
2018-09-19T20:46:04.127Z,63.10
2018-09-19T20:48:37.544Z,63.00
2018-09-19T20:51:10.972Z,63.00
2018-09-19T20:53:44.434Z,63.40
2018-09-19T20:56:17.835Z,63.60
2018-09-19T20:58:51.259Z,64.20
2018-09-19T21:01:24.671Z,64.30
2018-09-19T21:03:59.132Z,64.10
2018-09-19T21:06:32.659Z,64.10
2018-09-19T21:09:06.506Z,64.60
2018-09-19T21:11:39.905Z,64.40
2018-09-19T21:14:13.343Z,64.60
2018-09-19T21:16:46.752Z,65.40
2018-09-19T21:19:20.291Z,64.70
2018-09-19T21:21:53.753Z,64.60
2018-09-19T21:24:27.223Z,64.60
2018-09-19T21:27:00.624Z,65.40
2018-09-19T21:29:34.191Z,64.90
2018-09-19T21:32:07.617Z,65.80
2018-09-19T21:34:41.056Z,65.90
2018-09-19T21:37:14.458Z,66.30
2018-09-19T21:39:47.906Z,66.00
2018-09-19T21:42:21.308Z,66.10
2018-09-19T21:44:54.727Z,66.60
2018-09-19T21:47:28.128Z,66.40
2018-09-19T21:50:01.551Z,66.90
2018-09-19T21:52:34.948Z,67.30
2018-09-19T21:55:08.385Z,66.20
2018-09-19T21:57:41.775Z,66.30
2018-09-19T22:00:15.548Z,66.70
2018-09-19T22:02:48.948Z,66.90
2018-09-19T22:05:22.375Z,66.50
2018-09-19T22:07:55.780Z,66.40
2018-09-19T22:10:29.807Z,65.90
2018-09-19T22:13:03.228Z,65.50
2018-09-19T22:15:36.722Z,67.40
2018-09-19T22:18:10.127Z,68.30
2018-09-19T22:20:43.675Z,69.90
2018-09-19T22:23:17.075Z,69.80
2018-09-19T22:25:50.549Z,69.30
2018-09-19T22:28:23.976Z,69.20
2018-09-19T22:30:57.395Z,69.20
2018-09-19T22:33:30.795Z,68.90
2018-09-19T22:36:04.247Z,68.70
2018-09-19T22:38:37.664Z,69.10
2018-09-19T22:41:11.208Z,68.80
2018-09-19T22:43:44.607Z,69.20
2018-09-19T22:46:18.063Z,69.50
2018-09-19T22:48:51.461Z,69.60
2018-09-19T22:51:24.871Z,70.20
2018-09-19T22:53:58.313Z,69.80
2018-09-19T22:56:31.735Z,71.10
2018-09-19T22:59:05.184Z,70.70
2018-09-19T23:01:38.606Z,71.00
2018-09-19T23:04:12.048Z,71.40
2018-09-19T23:06:45.480Z,71.10
2018-09-19T23:09:18.953Z,71.30
2018-09-19T23:11:52.366Z,70.90
2018-09-19T23:14:25.871Z,71.30
2018-09-19T23:16:59.306Z,70.60
2018-09-19T23:19:32.694Z,70.30
2018-09-19T23:22:06.164Z,71.20
2018-09-19T23:24:39.563Z,72.30
2018-09-19T23:27:12.995Z,73.30
2018-09-19T23:29:46.396Z,74.30
2018-09-19T23:32:19.812Z,73.40
2018-09-19T23:34:53.211Z,72.90
2018-09-19T23:37:26.640Z,72.50
2018-09-19T23:40:00.064Z,72.20
2018-09-19T23:42:33.499Z,72.40
2018-09-19T23:45:07.036Z,72.10
2018-09-19T23:47:40.446Z,71.60
2018-09-19T23:50:13.931Z,71.80
2018-09-19T23:52:47.322Z,71.70
2018-09-19T23:55:20.895Z,71.40
2018-09-19T23:57:54.414Z,71.40
